Time;durP1;ratioP1;P1;durP2;ratioP2;P2;SDS_P1;SDS_P2;PMS_P1;PMS_P2;Temp;Humidity;BMP_temperature;BMP_pressure;BME280_temperature;BME280_humidity;BME280_pressure;Samples;Min_cycle;Max_cycle;Signal;HPM_P1;HPM_P2
2021/06/10 00:00:17;;;;;;;10.43;7.43;;;12.50;93.60;;;;;;5051213;28;20504;-76
2021/06/10 00:02:43;;;;;;;9.73;7.53;;;12.40;94.90;;;;;;5051543;28;20021;-77
2021/06/10 00:05:12;;;;;;;8.13;6.95;;;12.30;95.80;;;;;;5052764;28;20051;-76
2021/06/10 00:07:38;;;;;;;13.25;9.57;;;12.30;96.80;;;;;;5052786;28;20014;-77
2021/06/10 00:10:09;;;;;;;10.48;9.38;;;12.20;94.60;;;;;;5052635;28;20024;-76
2021/06/10 00:12:35;;;;;;;13.20;9.77;;;12.20;93.80;;;;;;5051524;28;20036;-77
2021/06/10 00:15:01;;;;;;;11.63;10.45;;;12.20;93.30;;;;;;5051174;28;20104;-76
2021/06/10 00:17:27;;;;;;;10.43;9.48;;;12.20;92.60;;;;;;5051474;28;20032;-77
2021/06/10 00:19:52;;;;;;;10.85;9.15;;;12.20;92.80;;;;;;5052563;28;20029;-77
2021/06/10 00:22:19;;;;;;;13.50;10.32;;;12.10;94.70;;;;;;5052667;28;20037;-77
2021/06/10 00:24:45;;;;;;;10.77;8.57;;;12.00;95.50;;;;;;5050449;28;20029;-77
2021/06/10 00:27:11;;;;;;;11.40;9.15;;;12.00;96.00;;;;;;5051377;28;20025;-77
2021/06/10 00:29:37;;;;;;;11.80;10.20;;;11.90;96.20;;;;;;5043593;28;20107;-77
2021/06/10 00:32:03;;;;;;;9.52;8.15;;;11.80;95.90;;;;;;5050804;28;20050;-77
2021/06/10 00:34:28;;;;;;;11.57;8.15;;;11.80;96.40;;;;;;5052528;28;20083;-77
2021/06/10 00:36:56;;;;;;;8.45;7.35;;;11.80;96.70;;;;;;5051205;28;20025;-77
2021/06/10 00:39:22;;;;;;;7.53;6.72;;;11.70;97.10;;;;;;5051116;28;20470;-76
2021/06/10 00:41:48;;;;;;;7.65;6.47;;;11.60;97.70;;;;;;5051128;28;20086;-77
2021/06/10 00:44:14;;;;;;;8.48;6.68;;;11.50;99.00;;;;;;5052349;28;20029;-77
2021/06/10 00:46:40;;;;;;;7.35;6.65;;;11.50;99.90;;;;;;5050797;28;20021;-77
2021/06/10 00:49:06;;;;;;;9.48;5.85;;;11.50;99.90;;;;;;5052293;28;20033;-77
2021/06/10 00:51:32;;;;;;;9.73;8.10;;;11.50;99.90;;;;;;5052277;28;20064;-77
2021/06/10 00:53:59;;;;;;;11.52;9.82;;;11.50;99.50;;;;;;5052200;28;20098;-77
2021/06/10 00:56:25;;;;;;;10.85;9.75;;;11.40;98.00;;;;;;5052166;28;20044;-77
2021/06/10 00:58:53;;;;;;;11.27;10.05;;;11.40;97.90;;;;;;5038008;28;20430;-76
2021/06/10 01:01:19;;;;;;;11.93;10.70;;;11.40;97.20;;;;;;5032361;28;20028;-77
2021/06/10 01:03:45;;;;;;;12.52;9.55;;;11.40;96.60;;;;;;5050912;28;20026;-77
2021/06/10 01:06:28;;;;;;;9.98;8.98;;;11.40;96.40;;;;;;5052197;28;20028;-77
2021/06/10 01:09:06;;;;;;;10.48;9.48;;;11.30;97.70;;;;;;5051902;28;20021;-77
2021/06/10 01:11:40;;;;;;;10.80;9.73;;;11.20;98.10;;;;;;5054503;28;20520;-77
2021/06/10 01:14:16;;;;;;;11.23;9.30;;;11.10;99.40;;;;;;5055726;28;20417;-76
2021/06/10 01:16:46;;;;;;;10.90;9.18;;;11.10;99.10;;;;;;5054448;28;20021;-77
2021/06/10 01:19:40;;;;;;;10.63;9.30;;;11.10;99.90;;;;;;5055329;28;20021;-77
2021/06/10 01:22:14;;;;;;;10.93;9.82;;;11.00;99.90;;;;;;5054314;28;20438;-77
2021/06/10 01:24:49;;;;;;;10.40;9.32;;;11.00;99.80;;;;;;5054512;28;20087;-77
2021/06/10 01:27:25;;;;;;;10.68;9.05;;;11.00;99.70;;;;;;5054194;28;20455;-77
2021/06/10 01:29:59;;;;;;;9.90;8.82;;;10.90;99.70;;;;;;5035533;28;20032;-77
2021/06/10 01:32:26;;;;;;;9.32;8.32;;;10.90;99.90;;;;;;5035506;28;20034;-77
2021/06/10 01:34:53;;;;;;;11.85;8.32;;;10.80;99.90;;;;;;5048639;28;20029;-77
2021/06/10 01:37:21;;;;;;;10.07;8.45;;;10.80;99.90;;;;;;5054144;28;20115;-77
2021/06/10 01:39:49;;;;;;;9.25;8.35;;;10.70;99.90;;;;;;5053992;28;20391;-77
2021/06/10 01:42:16;;;;;;;7.50;6.78;;;10.70;99.90;;;;;;5054946;28;20024;-77
2021/06/10 01:44:42;;;;;;;7.55;6.25;;;10.60;99.90;;;;;;5053707;28;20077;-77
2021/06/10 01:47:10;;;;;;;9.95;8.30;;;10.60;99.90;;;;;;5054938;28;20029;-77
2021/06/10 01:49:37;;;;;;;8.38;6.97;;;10.50;99.90;;;;;;5055041;28;20025;-77
2021/06/10 01:52:06;;;;;;;9.20;7.88;;;10.50;99.90;;;;;;5054472;28;20123;-77
2021/06/10 01:54:33;;;;;;;11.32;8.48;;;10.50;99.90;;;;;;5055018;28;20021;-77
2021/06/10 01:57:01;;;;;;;11.15;9.02;;;10.50;99.90;;;;;;5053592;28;20053;-77
2021/06/10 01:59:27;;;;;;;10.57;8.40;;;10.50;99.90;;;;;;5054937;28;20507;-77
2021/06/10 02:01:53;;;;;;;21.50;16.90;;;10.40;99.90;;;;;;5053293;28;20021;-77
2021/06/10 02:04:22;;;;;;;16.13;13.38;;;10.40;99.90;;;;;;5053415;28;20124;-77
2021/06/10 02:06:49;;;;;;;19.90;16.25;;;10.40;99.90;;;;;;5054769;28;20603;-77
2021/06/10 02:09:15;;;;;;;16.40;13.57;;;10.40;99.90;;;;;;5053460;28;20036;-77
2021/06/10 02:11:42;;;;;;;14.77;12.50;;;10.40;99.90;;;;;;5053019;28;20044;-77
2021/06/10 02:14:08;;;;;;;14.52;12.80;;;10.40;99.90;;;;;;5054576;28;20070;-77
2021/06/10 02:16:39;;;;;;;14.40;10.68;;;10.30;99.90;;;;;;5054641;28;20048;-77
2021/06/10 02:19:05;;;;;;;8.57;7.70;;;10.20;99.90;;;;;;5054338;28;20021;-77
2021/06/10 02:21:31;;;;;;;7.95;7.10;;;10.20;99.90;;;;;;5053314;28;20037;-77
2021/06/10 02:23:57;;;;;;;7.57;6.82;;;10.20;99.90;;;;;;5054105;28;20021;-77
2021/06/10 02:26:23;;;;;;;11.75;8.48;;;10.10;99.90;;;;;;5053211;28;20359;-78
2021/06/10 02:28:49;;;;;;;9.50;7.47;;;10.10;99.90;;;;;;5052951;28;20025;-78
2021/06/10 02:31:14;;;;;;;8.13;6.55;;;10.00;99.90;;;;;;5037334;28;20503;-78
2021/06/10 02:33:43;;;;;;;12.98;10.65;;;10.00;99.90;;;;;;5033055;28;20028;-78
2021/06/10 02:36:11;;;;;;;14.05;11.93;;;10.00;99.90;;;;;;5032897;28;20025;-78
2021/06/10 02:38:39;;;;;;;18.60;15.77;;;10.00;99.90;;;;;;5034246;28;20022;-78
2021/06/10 02:41:05;;;;;;;13.65;11.95;;;10.00;99.90;;;;;;5037647;28;20114;-78
2021/06/10 02:43:32;;;;;;;20.58;18.10;;;10.00;99.90;;;;;;5054083;28;20500;-78
2021/06/10 02:46:00;;;;;;;23.17;18.98;;;10.00;99.90;;;;;;5054301;28;20040;-77
2021/06/10 02:48:29;;;;;;;16.90;14.50;;;10.00;99.90;;;;;;5054015;28;20025;-77
2021/06/10 02:50:56;;;;;;;19.10;17.20;;;10.00;99.90;;;;;;5053411;28;20076;-77
2021/06/10 02:53:23;;;;;;;15.68;13.75;;;10.00;99.90;;;;;;5052613;28;20105;-78
2021/06/10 02:55:51;;;;;;;15.80;12.77;;;10.00;99.90;;;;;;5052455;28;20033;-77
2021/06/10 02:58:19;;;;;;;13.20;11.30;;;10.00;99.90;;;;;;5052515;28;20071;-78
2021/06/10 03:00:46;;;;;;;13.80;9.88;;;10.00;99.90;;;;;;5053681;28;20478;-78
2021/06/10 03:03:14;;;;;;;17.27;11.43;;;10.10;99.90;;;;;;5052458;28;20399;-78
2021/06/10 03:05:41;;;;;;;12.30;10.98;;;10.00;99.90;;;;;;5045371;28;20104;-78
2021/06/10 03:08:12;;;;;;;12.73;8.27;;;10.00;99.90;;;;;;5051171;28;20020;-78
2021/06/10 03:10:38;;;;;;;10.07;8.63;;;10.10;99.90;;;;;;5052225;28;20028;-78
2021/06/10 03:13:04;;;;;;;7.82;7.10;;;10.10;99.90;;;;;;5053464;28;20013;-78
2021/06/10 03:15:32;;;;;;;7.00;6.25;;;10.10;99.90;;;;;;5053468;28;20037;-78
2021/06/10 03:17:58;;;;;;;5.43;4.93;;;10.10;99.90;;;;;;5053446;28;20021;-78
2021/06/10 03:20:25;;;;;;;6.22;5.65;;;10.10;99.90;;;;;;5052014;28;20029;-78
2021/06/10 03:22:52;;;;;;;8.77;5.55;;;10.20;99.90;;;;;;5051954;28;20028;-78
2021/06/10 03:25:20;;;;;;;8.20;6.00;;;10.30;99.70;;;;;;5033501;28;20479;-78
2021/06/10 03:27:46;;;;;;;5.82;4.55;;;10.30;98.90;;;;;;5032322;28;20029;-78
2021/06/10 03:30:12;;;;;;;5.63;5.07;;;10.40;98.20;;;;;;5033270;28;20022;-78
2021/06/10 03:32:38;;;;;;;6.10;5.50;;;10.50;97.10;;;;;;5031661;28;20030;-78
2021/06/10 03:35:06;;;;;;;10.18;7.13;;;10.60;97.70;;;;;;5033709;28;20475;-78
2021/06/10 03:37:32;;;;;;;7.63;6.18;;;10.80;96.90;;;;;;5052031;28;20063;-77
2021/06/10 03:39:59;;;;;;;6.72;5.55;;;10.90;96.10;;;;;;5036885;28;20491;-78
2021/06/10 03:42:25;;;;;;;6.45;5.85;;;11.00;94.90;;;;;;5031953;28;20026;-77
2021/06/10 03:44:52;;;;;;;7.05;4.88;;;11.20;94.50;;;;;;5031814;28;20438;-77
2021/06/10 03:47:18;;;;;;;6.45;5.63;;;11.30;93.00;;;;;;5034153;28;20021;-77
2021/06/10 03:49:44;;;;;;;6.68;5.40;;;11.50;91.50;;;;;;5052311;28;20393;-77
2021/06/10 03:52:10;;;;;;;5.82;5.25;;;11.60;90.10;;;;;;5052784;28;20033;-77
2021/06/10 03:54:36;;;;;;;5.63;5.13;;;11.70;89.10;;;;;;5051699;28;20021;-77
2021/06/10 03:57:02;;;;;;;8.00;6.82;;;11.90;87.70;;;;;;5052896;28;20021;-77
2021/06/10 03:59:28;;;;;;;18.25;9.90;;;12.00;87.40;;;;;;5051559;28;20029;-77
2021/06/10 04:01:54;;;;;;;11.85;7.60;;;12.10;87.10;;;;;;5048747;28;20148;-77
2021/06/10 04:04:19;;;;;;;15.52;6.57;;;12.20;87.00;;;;;;5031681;28;20029;-77
2021/06/10 04:06:47;;;;;;;21.25;10.35;;;12.40;86.30;;;;;;5046890;28;20021;-77
2021/06/10 04:09:12;;;;;;;19.50;10.18;;;12.60;86.10;;;;;;5051654;28;20043;-77
2021/06/10 04:11:39;;;;;;;16.67;9.82;;;12.70;85.90;;;;;;5051050;28;20410;-77
2021/06/10 04:14:05;;;;;;;17.40;9.93;;;12.70;85.60;;;;;;5052610;28;20052;-77
2021/06/10 04:16:32;;;;;;;13.93;8.82;;;12.80;85.90;;;;;;5051429;28;20421;-76
2021/06/10 04:18:57;;;;;;;17.05;9.90;;;12.90;86.30;;;;;;5052515;28;20057;-77
2021/06/10 04:21:24;;;;;;;14.52;8.60;;;13.10;85.60;;;;;;5049253;28;20493;-78
2021/06/10 04:23:50;;;;;;;14.05;8.65;;;13.10;84.70;;;;;;5031357;28;20116;-76
2021/06/10 04:26:17;;;;;;;11.27;8.23;;;13.10;84.90;;;;;;5044423;28;20475;-77
2021/06/10 04:28:47;;;;;;;11.68;9.25;;;13.10;84.90;;;;;;5051229;28;20063;-77
2021/06/10 04:31:17;;;;;;;9.30;7.93;;;13.10;84.70;;;;;;5052779;28;20041;-77
2021/06/10 04:33:42;;;;;;;10.93;8.38;;;13.20;86.60;;;;;;5051760;28;20075;-77
2021/06/10 04:36:10;;;;;;;13.00;8.30;;;13.20;87.70;;;;;;5050095;28;20549;-77
2021/06/10 04:38:37;;;;;;;10.30;6.82;;;13.20;87.80;;;;;;5051534;28;20493;-77
2021/06/10 04:41:03;;;;;;;8.68;6.82;;;13.30;87.20;;;;;;5049877;28;20036;-77
2021/06/10 04:43:28;;;;;;;8.05;6.95;;;13.50;87.20;;;;;;5051916;28;20410;-77
2021/06/10 04:45:56;;;;;;;11.45;7.22;;;13.60;87.10;;;;;;5055558;28;20036;-77
2021/06/10 04:48:22;;;;;;;10.95;8.07;;;13.80;86.80;;;;;;5055415;28;20044;-77
2021/06/10 04:50:48;;;;;;;8.32;7.45;;;14.00;88.10;;;;;;5053878;28;20318;-77
2021/06/10 04:53:14;;;;;;;13.02;8.23;;;14.10;88.60;;;;;;5055240;28;20064;-77
2021/06/10 04:55:40;;;;;;;16.02;10.10;;;14.20;89.40;;;;;;5045749;28;20032;-77
2021/06/10 04:58:06;;;;;;;37.17;18.73;;;14.30;90.70;;;;;;5035079;28;20036;-78
2021/06/10 05:00:33;;;;;;;24.65;15.65;;;14.50;90.20;;;;;;5033893;28;20029;-77
2021/06/10 05:02:59;;;;;;;15.55;10.18;;;14.70;90.90;;;;;;5035071;28;20021;-77
2021/06/10 05:05:25;;;;;;;11.70;8.43;;;14.80;89.80;;;;;;5036849;28;20017;-77
2021/06/10 05:07:51;;;;;;;12.32;8.73;;;15.00;90.60;;;;;;5054919;28;20025;-77
2021/06/10 05:10:16;;;;;;;17.35;12.57;;;15.10;92.10;;;;;;5055119;28;20021;-76
2021/06/10 05:12:42;;;;;;;50.88;27.38;;;15.20;93.40;;;;;;5054460;28;20036;-76
2021/06/10 05:15:08;;;;;;;13.80;9.68;;;15.30;93.50;;;;;;5054734;28;20029;-76
2021/06/10 05:17:34;;;;;;;19.38;10.80;;;15.40;92.80;;;;;;5054764;28;20537;-77
2021/06/10 05:20:00;;;;;;;14.80;8.88;;;15.40;93.90;;;;;;5053557;28;20025;-77
2021/06/10 05:22:27;;;;;;;13.23;7.70;;;15.60;95.20;;;;;;5039410;28;20021;-76
2021/06/10 05:24:53;;;;;;;9.02;6.70;;;15.70;96.50;;;;;;5044866;28;20463;-76
2021/06/10 05:27:18;;;;;;;10.30;6.70;;;15.80;94.60;;;;;;5052487;28;20036;-76
2021/06/10 05:29:45;;;;;;;7.93;5.85;;;16.00;91.20;;;;;;5034528;28;20034;-76
2021/06/10 05:32:10;;;;;;;8.90;5.40;;;16.10;86.20;;;;;;5033096;28;20052;-76
2021/06/10 05:34:36;;;;;;;5.40;4.60;;;16.30;82.00;;;;;;5035097;28;20479;-77
2021/06/10 05:37:02;;;;;;;5.65;4.57;;;16.50;79.50;;;;;;5046697;28;20014;-78
2021/06/10 05:39:28;;;;;;;11.30;5.68;;;16.70;77.50;;;;;;5038176;28;20507;-77
2021/06/10 05:41:55;;;;;;;6.20;4.55;;;16.90;78.30;;;;;;5036265;28;20060;-75
2021/06/10 05:44:20;;;;;;;9.50;5.03;;;17.10;77.70;;;;;;5033913;28;20116;-75
2021/06/10 05:46:48;;;;;;;8.40;5.25;;;17.30;76.00;;;;;;5033979;28;20172;-76
2021/06/10 05:49:18;;;;;;;11.40;8.05;;;17.40;73.70;;;;;;5033825;28;20041;-76
2021/06/10 05:51:44;;;;;;;4.43;2.58;;;17.60;72.20;;;;;;5034988;28;20069;-75
2021/06/10 05:54:10;;;;;;;6.10;2.50;;;17.70;62.50;;;;;;5031620;28;20104;-76
2021/06/10 05:56:36;;;;;;;5.88;2.33;;;17.90;60.30;;;;;;5045203;28;20474;-76
2021/06/10 05:59:01;;;;;;;7.93;2.33;;;18.20;61.00;;;;;;5051215;28;20032;-75
2021/06/10 06:01:27;;;;;;;4.03;2.28;;;18.30;57.00;;;;;;5053723;28;20131;-75
2021/06/10 06:03:53;;;;;;;2.15;1.95;;;18.40;55.40;;;;;;5051106;28;20474;-75
2021/06/10 06:06:19;;;;;;;1.63;1.52;;;18.50;55.70;;;;;;5052355;28;20482;-76
2021/06/10 06:08:48;;;;;;;3.13;2.00;;;18.50;55.20;;;;;;5054666;28;20028;-76
2021/06/10 06:11:14;;;;;;;2.05;1.52;;;18.60;54.60;;;;;;5054455;28;20477;-75
2021/06/10 06:13:48;;;;;;;3.17;1.98;;;18.80;55.00;;;;;;5054291;28;20021;-75
2021/06/10 06:16:17;;;;;;;1.50;1.35;;;19.00;54.40;;;;;;5054510;28;20033;-75
2021/06/10 06:18:43;;;;;;;1.70;1.45;;;19.00;53.00;;;;;;5054067;28;20032;-76
2021/06/10 06:21:09;;;;;;;4.13;1.90;;;19.00;52.50;;;;;;5054208;28;20039;-75
2021/06/10 06:23:35;;;;;;;1.60;1.42;;;19.10;52.50;;;;;;5054486;28;20021;-76
2021/06/10 06:26:01;;;;;;;3.08;1.67;;;19.20;52.40;;;;;;5053020;28;20543;-75
2021/06/10 06:28:27;;;;;;;1.58;1.48;;;19.40;52.10;;;;;;5047109;28;20386;-76
2021/06/10 06:30:53;;;;;;;3.65;1.83;;;19.30;52.20;;;;;;5040765;28;20116;-76
2021/06/10 06:33:19;;;;;;;2.20;1.45;;;19.50;51.60;;;;;;5049046;28;20025;-76
2021/06/10 06:35:45;;;;;;;2.08;1.60;;;19.50;49.70;;;;;;5045568;28;20498;-75
2021/06/10 06:38:12;;;;;;;2.63;1.83;;;19.60;49.50;;;;;;5032636;28;20036;-76
2021/06/10 06:40:39;;;;;;;1.92;1.83;;;19.70;50.60;;;;;;5031782;28;20021;-76
2021/06/10 06:43:06;;;;;;;6.35;2.00;;;19.80;51.40;;;;;;5031239;28;20033;-75
2021/06/10 06:45:34;;;;;;;2.22;2.05;;;20.00;50.90;;;;;;5034728;28;20025;-76
2021/06/10 06:48:00;;;;;;;4.65;1.95;;;20.10;51.40;;;;;;5029146;28;20042;-76
2021/06/10 06:50:27;;;;;;;3.65;2.25;;;20.10;51.80;;;;;;5036736;28;20367;-74
2021/06/10 06:52:52;;;;;;;4.95;1.90;;;20.30;51.70;;;;;;5051415;28;20644;-75
2021/06/10 06:55:18;;;;;;;5.43;2.60;;;20.30;51.10;;;;;;5046275;28;20053;-75
2021/06/10 06:57:44;;;;;;;2.50;2.20;;;20.40;52.10;;;;;;5031333;28;20044;-74
2021/06/10 07:00:10;;;;;;;2.15;1.95;;;20.50;52.40;;;;;;5032114;28;20025;-74
2021/06/10 07:02:35;;;;;;;3.45;2.35;;;20.60;53.00;;;;;;5028439;28;20033;-74
2021/06/10 07:05:01;;;;;;;2.30;2.20;;;20.60;52.70;;;;;;5032958;28;20201;-75
2021/06/10 07:07:27;;;;;;;3.00;2.35;;;20.70;53.50;;;;;;5037844;28;20140;-73
2021/06/10 07:09:53;;;;;;;2.92;2.40;;;20.50;53.20;;;;;;5036789;28;20021;-74
2021/06/10 07:12:18;;;;;;;3.53;2.30;;;20.70;53.70;;;;;;5043049;28;20052;-74
2021/06/10 07:14:44;;;;;;;9.48;3.85;;;21.00;54.60;;;;;;5040086;28;20028;-73
2021/06/10 07:17:10;;;;;;;2.55;2.35;;;20.90;53.10;;;;;;5036426;28;20490;-73
2021/06/10 07:19:36;;;;;;;2.92;2.50;;;20.70;52.20;;;;;;5029044;28;20025;-73
2021/06/10 07:22:02;;;;;;;3.72;2.53;;;20.90;52.80;;;;;;5031067;28;20376;-73
2021/06/10 07:24:28;;;;;;;3.58;2.33;;;20.80;52.40;;;;;;5036907;28;20454;-74
2021/06/10 07:26:54;;;;;;;2.33;2.00;;;20.80;52.90;;;;;;5050176;28;20520;-73
2021/06/10 07:29:19;;;;;;;3.83;2.55;;;20.70;52.30;;;;;;5041793;28;20058;-73
2021/06/10 07:31:46;;;;;;;2.75;2.50;;;20.80;51.90;;;;;;5027228;28;20514;-73
2021/06/10 07:34:12;;;;;;;3.83;2.25;;;20.70;52.10;;;;;;5030960;28;20043;-74
2021/06/10 07:36:38;;;;;;;2.40;2.20;;;20.80;52.40;;;;;;5041193;28;20033;-74
2021/06/10 07:39:06;;;;;;;3.20;2.53;;;20.80;52.70;;;;;;5050603;28;20393;-74
2021/06/10 07:41:32;;;;;;;5.05;2.70;;;21.10;52.80;;;;;;5032815;28;20057;-74
2021/06/10 07:43:58;;;;;;;4.40;2.80;;;21.20;52.40;;;;;;5049776;28;20060;-74
2021/06/10 07:46:24;;;;;;;5.18;2.67;;;20.90;52.10;;;;;;5065078;28;20488;-73
2021/06/10 07:48:49;;;;;;;3.53;2.35;;;21.20;52.60;;;;;;5063834;28;20114;-74
2021/06/10 07:51:15;;;;;;;5.97;3.05;;;21.50;52.30;;;;;;5039245;28;20047;-74
2021/06/10 07:53:42;;;;;;;8.50;3.20;;;21.50;52.00;;;;;;5063484;28;20115;-74
2021/06/10 07:56:08;;;;;;;2.83;2.63;;;21.70;52.20;;;;;;5044685;28;20163;-74
2021/06/10 07:58:34;;;;;;;3.42;2.63;;;21.80;51.50;;;;;;5049873;28;20120;-74
2021/06/10 08:01:01;;;;;;;2.30;2.03;;;21.60;50.80;;;;;;5043832;28;20052;-74
2021/06/10 08:03:27;;;;;;;2.53;2.33;;;21.80;49.70;;;;;;5036908;28;20126;-75
2021/06/10 08:05:55;;;;;;;4.15;2.17;;;21.90;49.20;;;;;;5040875;28;20286;-74
2021/06/10 08:08:21;;;;;;;3.75;2.17;;;22.10;49.10;;;;;;5041636;28;20034;-74
2021/06/10 08:10:49;;;;;;;3.70;2.70;;;22.30;48.20;;;;;;5031724;28;20496;-74
2021/06/10 08:13:16;;;;;;;5.03;2.35;;;22.50;48.70;;;;;;5061884;28;20033;-74
2021/06/10 08:15:42;;;;;;;6.07;2.50;;;22.50;49.20;;;;;;5045288;28;20021;-74
2021/06/10 08:18:10;;;;;;;6.18;2.80;;;22.20;48.80;;;;;;5036375;28;20121;-74
2021/06/10 08:20:36;;;;;;;2.55;2.35;;;21.90;49.80;;;;;;5038700;28;20433;-73
2021/06/10 08:23:03;;;;;;;7.15;2.45;;;21.70;49.80;;;;;;5039032;28;20106;-73
2021/06/10 08:25:30;;;;;;;6.22;2.60;;;21.80;49.50;;;;;;5039976;28;20104;-73
2021/06/10 08:27:57;;;;;;;3.72;2.17;;;21.80;48.50;;;;;;5042164;28;20492;-74
2021/06/10 08:30:24;;;;;;;2.40;2.20;;;21.90;48.20;;;;;;5038911;28;20056;-74
2021/06/10 08:32:50;;;;;;;3.90;1.85;;;21.90;48.80;;;;;;5036219;28;20049;-74
2021/06/10 08:35:16;;;;;;;3.22;2.40;;;22.10;48.20;;;;;;5038808;28;20048;-74
2021/06/10 08:37:42;;;;;;;10.30;2.17;;;22.30;48.50;;;;;;5043761;28;20045;-73
2021/06/10 08:40:09;;;;;;;5.13;1.90;;;21.90;46.60;;;;;;5041894;28;20467;-73
2021/06/10 08:42:39;;;;;;;1.90;1.77;;;21.80;45.60;;;;;;5043817;28;20032;-73
2021/06/10 08:45:09;;;;;;;2.92;2.03;;;22.20;44.10;;;;;;5030211;28;20029;-73
2021/06/10 08:47:38;;;;;;;2.47;2.13;;;22.10;45.00;;;;;;5033581;28;20040;-73
2021/06/10 08:50:06;;;;;;;2.38;2.17;;;22.10;46.60;;;;;;5038247;28;20055;-73
2021/06/10 08:52:34;;;;;;;2.70;2.00;;;21.90;45.90;;;;;;5053608;28;20057;-73
2021/06/10 08:55:01;;;;;;;6.53;2.80;;;22.10;46.10;;;;;;5038879;28;20022;-74
2021/06/10 08:57:26;;;;;;;3.15;2.38;;;22.10;46.60;;;;;;5043663;28;20044;-73
2021/06/10 08:59:54;;;;;;;2.38;2.17;;;22.10;46.60;;;;;;5043616;28;20026;-73
2021/06/10 09:02:19;;;;;;;6.80;2.03;;;22.10;46.10;;;;;;5033361;28;20107;-73
2021/06/10 09:04:45;;;;;;;2.05;1.95;;;22.20;46.10;;;;;;5031106;28;20479;-73
2021/06/10 09:07:10;;;;;;;4.00;2.10;;;22.50;46.10;;;;;;5028820;28;20391;-74
2021/06/10 09:09:38;;;;;;;2.78;2.58;;;22.50;46.00;;;;;;5031874;28;20550;-73
2021/06/10 09:12:10;;;;;;;3.85;2.28;;;22.00;46.20;;;;;;5033291;28;20021;-73
2021/06/10 09:14:57;;;;;;;2.13;1.92;;;21.80;46.90;;;;;;5041545;28;20080;-76
2021/06/10 09:17:49;;;;;;;3.05;2.10;;;21.90;47.70;;;;;;5049803;28;20033;-75
2021/06/10 09:20:21;;;;;;;3.08;2.03;;;22.00;47.90;;;;;;5045143;28;20068;-76
2021/06/10 09:22:50;;;;;;;2.30;2.20;;;22.20;47.40;;;;;;5031125;28;20378;-75
2021/06/10 09:25:24;;;;;;;4.30;2.40;;;22.40;46.60;;;;;;5032486;28;20056;-76
2021/06/10 09:28:00;;;;;;;2.70;2.42;;;22.60;46.50;;;;;;5034586;28;20545;-76
2021/06/10 09:30:52;;;;;;;2.40;2.20;;;22.40;45.50;;;;;;5043287;28;20056;-75
2021/06/10 09:33:20;;;;;;;3.08;2.17;;;22.50;45.70;;;;;;5068011;28;20075;-77
2021/06/10 09:35:47;;;;;;;5.40;2.47;;;22.70;45.30;;;;;;5052342;28;20047;-75
2021/06/10 09:38:18;;;;;;;2.58;2.38;;;23.00;45.30;;;;;;5068403;28;20044;-75
2021/06/10 09:40:44;;;;;;;4.78;2.30;;;22.50;45.20;;;;;;5067527;28;20033;-76
2021/06/10 09:43:10;;;;;;;2.72;2.53;;;22.60;45.70;;;;;;5063654;28;20037;-73
2021/06/10 09:45:37;;;;;;;3.50;1.90;;;22.70;45.70;;;;;;5039904;28;20112;-73
2021/06/10 09:48:05;;;;;;;2.90;2.65;;;22.80;45.70;;;;;;5032553;28;20041;-73
2021/06/10 09:50:43;;;;;;;3.67;2.30;;;22.90;44.50;;;;;;5037936;28;20024;-73
2021/06/10 09:53:18;;;;;;;3.58;2.40;;;22.70;43.50;;;;;;5050963;28;20049;-74
2021/06/10 09:55:46;;;;;;;4.10;2.60;;;22.70;44.70;;;;;;5029232;28;20072;-73
2021/06/10 09:58:11;;;;;;;2.85;2.60;;;22.90;45.40;;;;;;5032376;28;20117;-73
2021/06/10 10:00:38;;;;;;;2.70;2.28;;;23.20;45.50;;;;;;5031110;28;20096;-74
2021/06/10 10:03:03;;;;;;;3.00;2.15;;;23.00;45.30;;;;;;5032234;28;20068;-74
2021/06/10 10:05:29;;;;;;;2.20;2.10;;;23.00;43.30;;;;;;5039332;28;20071;-74
2021/06/10 10:07:55;;;;;;;2.25;2.10;;;23.40;43.50;;;;;;5051385;28;20056;-75
2021/06/10 10:10:22;;;;;;;2.95;2.17;;;23.60;43.10;;;;;;5051875;28;20025;-74
2021/06/10 10:12:49;;;;;;;4.55;2.47;;;23.10;43.10;;;;;;5050866;28;20049;-74
2021/06/10 10:15:16;;;;;;;2.58;2.38;;;22.90;43.90;;;;;;5050308;28;20241;-74
2021/06/10 10:17:42;;;;;;;5.25;2.17;;;22.50;43.70;;;;;;5050679;28;20140;-74
2021/06/10 10:20:09;;;;;;;3.28;1.90;;;22.50;43.90;;;;;;5050457;28;20577;-74
2021/06/10 10:22:36;;;;;;;5.18;2.17;;;22.90;44.00;;;;;;5031294;28;20113;-74
2021/06/10 10:25:05;;;;;;;9.68;2.40;;;22.90;44.40;;;;;;5031996;28;20032;-71
2021/06/10 10:27:31;;;;;;;4.50;2.25;;;22.60;44.40;;;;;;5035414;28;20013;-74
2021/06/10 10:29:57;;;;;;;4.70;1.88;;;22.40;44.20;;;;;;5048773;28;20074;-73
2021/06/10 10:32:28;;;;;;;3.22;2.50;;;22.50;44.40;;;;;;5049874;28;20033;-73
2021/06/10 10:35:12;;;;;;;2.30;2.10;;;22.50;45.40;;;;;;5049234;28;20299;-74
2021/06/10 10:37:38;;;;;;;2.55;2.10;;;22.90;44.80;;;;;;5049867;28;20021;-74
2021/06/10 10:40:07;;;;;;;2.50;2.30;;;23.40;43.90;;;;;;5052345;28;20032;-74
2021/06/10 10:42:36;;;;;;;2.92;1.92;;;23.40;43.10;;;;;;5050906;28;20017;-74
2021/06/10 10:45:19;;;;;;;3.40;2.35;;;23.40;43.40;;;;;;5051961;28;20037;-74
2021/06/10 10:48:00;;;;;;;5.57;3.25;;;23.20;43.80;;;;;;5049979;28;20024;-74
2021/06/10 10:50:44;;;;;;;2.97;2.20;;;23.10;44.50;;;;;;5051714;28;20501;-73
2021/06/10 10:53:25;;;;;;;5.03;2.92;;;22.80;44.50;;;;;;5048862;28;20048;-73
2021/06/10 10:56:11;;;;;;;2.53;2.33;;;23.00;45.00;;;;;;5050577;28;20475;-74
2021/06/10 10:58:40;;;;;;;2.95;2.53;;;23.20;44.20;;;;;;5049976;28;20033;-74
2021/06/10 11:01:10;;;;;;;2.30;2.10;;;23.30;42.60;;;;;;5051160;28;20036;-74
2021/06/10 11:03:43;;;;;;;2.50;2.30;;;23.60;42.50;;;;;;5051068;28;20072;-74
2021/06/10 11:06:21;;;;;;;2.60;2.40;;;23.70;42.30;;;;;;5046726;28;20398;-74
2021/06/10 11:09:10;;;;;;;4.25;2.40;;;23.80;43.40;;;;;;5049437;28;20124;-74
2021/06/10 11:11:59;;;;;;;2.35;2.20;;;23.90;42.60;;;;;;5051255;28;20378;-74
2021/06/10 11:14:42;;;;;;;2.92;2.33;;;24.10;41.10;;;;;;5049850;28;20615;-74
2021/06/10 11:17:32;;;;;;;3.30;2.42;;;24.20;40.00;;;;;;5051328;28;20387;-74
2021/06/10 11:20:07;;;;;;;1.80;1.70;;;23.90;39.60;;;;;;5049190;28;20102;-73
2021/06/10 11:22:36;;;;;;;3.97;2.67;;;24.20;39.30;;;;;;5050738;28;20070;-72
2021/06/10 11:25:06;;;;;;;2.88;2.58;;;24.30;38.70;;;;;;5051073;28;20033;-72
2021/06/10 11:27:47;;;;;;;1.92;1.83;;;24.50;39.50;;;;;;5051796;28;20021;-72
2021/06/10 11:30:14;;;;;;;2.10;2.00;;;24.70;39.30;;;;;;5049471;28;20477;-72
2021/06/10 11:33:15;;;;;;;3.95;2.47;;;24.30;40.70;;;;;;5050367;28;20087;-73
2021/06/10 11:36:02;;;;;;;2.67;2.50;;;24.20;41.50;;;;;;5040020;28;20444;-73
2021/06/10 11:38:31;;;;;;;2.70;2.50;;;23.80;41.70;;;;;;5049892;28;20033;-73
2021/06/10 11:41:15;;;;;;;3.42;2.50;;;23.40;42.00;;;;;;5050328;28;20501;-72
2021/06/10 11:43:44;;;;;;;4.95;2.72;;;23.40;42.00;;;;;;5050542;28;20087;-72
2021/06/10 11:46:12;;;;;;;3.10;2.80;;;23.20;42.40;;;;;;5049534;28;20111;-72
2021/06/10 11:48:45;;;;;;;5.15;3.40;;;22.80;44.80;;;;;;5049944;28;20052;-73
2021/06/10 11:51:21;;;;;;;2.97;2.78;;;22.10;48.90;;;;;;5049341;28;20124;-72
2021/06/10 11:53:46;;;;;;;8.98;4.07;;;21.70;51.60;;;;;;5044254;28;20041;-72
2021/06/10 11:56:13;;;;;;;11.82;3.97;;;21.30;56.30;;;;;;5031100;28;20028;-73
2021/06/10 11:58:39;;;;;;;4.03;3.63;;;21.10;63.60;;;;;;5029252;28;20044;-73
2021/06/10 12:01:12;;;;;;;4.70;4.20;;;20.60;62.00;;;;;;5030410;28;20014;-72
2021/06/10 12:03:39;;;;;;;5.28;4.63;;;20.50;61.50;;;;;;5031184;28;20045;-71
2021/06/10 12:06:08;;;;;;;4.35;3.95;;;20.40;60.90;;;;;;5027572;28;20478;-72
2021/06/10 12:08:36;;;;;;;4.45;4.05;;;20.60;60.50;;;;;;5031114;28;20048;-72
2021/06/10 12:11:05;;;;;;;4.75;4.32;;;20.70;62.70;;;;;;5029599;28;20083;-70
2021/06/10 12:13:36;;;;;;;6.65;4.60;;;20.70;64.70;;;;;;5030274;28;20029;-71
2021/06/10 12:16:04;;;;;;;7.85;4.70;;;20.70;64.60;;;;;;5029773;28;20025;-72
2021/06/10 12:18:30;;;;;;;7.93;5.13;;;20.10;65.80;;;;;;5033025;28;20037;-72
2021/06/10 12:21:02;;;;;;;5.10;3.40;;;19.30;69.80;;;;;;5030538;28;20051;-72
2021/06/10 12:23:34;;;;;;;5.20;3.35;;;19.10;59.70;;;;;;5031776;28;20502;-72
2021/06/10 12:26:11;;;;;;;4.57;3.50;;;19.20;63.30;;;;;;5049721;28;20025;-72
2021/06/10 12:28:50;;;;;;;5.88;4.00;;;19.20;64.10;;;;;;5045938;28;20036;-72
2021/06/10 12:31:21;;;;;;;7.22;4.53;;;19.30;77.40;;;;;;5047199;28;20029;-72
2021/06/10 12:33:49;;;;;;;12.30;6.13;;;19.50;80.80;;;;;;5046086;28;20045;-72
2021/06/10 12:36:30;;;;;;;8.38;5.32;;;19.60;92.30;;;;;;5055003;28;20040;-72
2021/06/10 12:39:00;;;;;;;10.53;5.50;;;19.90;94.30;;;;;;5064630;28;20083;-72
2021/06/10 12:41:36;;;;;;;8.02;5.68;;;20.00;97.60;;;;;;5060889;28;20276;-72
2021/06/10 12:44:11;;;;;;;9.05;6.50;;;20.10;91.30;;;;;;5048942;28;20526;-72
2021/06/10 12:46:57;;;;;;;7.72;5.03;;;20.20;94.10;;;;;;5049445;28;20509;-71
2021/06/10 12:49:38;;;;;;;6.07;5.47;;;20.20;88.80;;;;;;5048250;28;20043;-72